Accueil
METAR-TAF:

METAR-TAF

Aéroports :

Monte Cimone, Italie

latitude: 44-12N, longitude: 010-42E, altitude: 2165 m

Observation

Le bulletin a été fait il y a 1 heure et 9 minutes, à 19:55 UTC
Vent 6 kt de direction variable
Température -1°C
Humidité 80%
Pression 1028 hPa

METAR: LIVC 061955Z AUTO VRB06KT //// M01/M04 Q1028

Heure: 23:04 (21:04 UTC)


TAF: absent

Observations et prévisions météorologiques de plus de 4000 aéroports (messages METAR et TAF).

Les stations disponibles sont représentées par des disques jaunes et rouges sur la carte.

Passer la souris dessus pour voir le nom de la station.

Cliquer dessus pour voir les observations et prévisions météorologiques.

Pour changer de carte: cliquez sur les boutons verts avec une croix noire pour zoomer, sur le bouton vert avec un tiret pour effectuer un zoom arrière, ou sur les flèches vertes pour les cartes adjacentes.


METAR-TAF: